createdAt,value
2019-05-09T00:00:49.486Z,94483.45
2019-05-09T00:03:15.951Z,94484.66
2019-05-09T00:05:44.095Z,94488.83
2019-05-09T00:08:10.451Z,94491.80
2019-05-09T00:10:41.583Z,94487.62
2019-05-09T00:13:05.801Z,94483.33
2019-05-09T00:15:33.239Z,94481.72
2019-05-09T00:17:59.654Z,94484.16
2019-05-09T00:20:27.658Z,94488.95
2019-05-09T00:22:54.014Z,94484.04
2019-05-09T00:25:20.153Z,94488.54
2019-05-09T00:27:46.479Z,94481.59
2019-05-09T00:30:14.480Z,94473.16
2019-05-09T00:32:43.234Z,94478.86
2019-05-09T00:35:17.327Z,94494.44
2019-05-09T00:37:55.457Z,94488.23
2019-05-09T00:40:23.823Z,94487.01
2019-05-09T00:42:53.330Z,94492.30
2019-05-09T00:45:39.954Z,94500.03
2019-05-09T00:48:06.257Z,94496.67
2019-05-09T00:50:34.141Z,94501.14
2019-05-09T00:53:00.440Z,94508.28
2019-05-09T00:55:26.649Z,94506.05
2019-05-09T00:57:53.439Z,94517.33
2019-05-09T01:00:20.413Z,94514.47
2019-05-09T01:02:46.554Z,94517.11
2019-05-09T01:05:13.270Z,94510.92
2019-05-09T01:07:39.825Z,94514.98
2019-05-09T01:10:07.356Z,94519.67
2019-05-09T01:12:34.203Z,94524.14
2019-05-09T01:15:03.346Z,94512.44
2019-05-09T01:17:29.820Z,94530.13
2019-05-09T01:19:57.181Z,94531.36
2019-05-09T01:22:23.663Z,94534.41
2019-05-09T01:24:50.067Z,94531.34
2019-05-09T01:27:16.281Z,94534.72
2019-05-09T01:29:43.954Z,94533.31
2019-05-09T01:32:14.722Z,94521.61
2019-05-09T01:34:41.142Z,94519.47
2019-05-09T01:37:09.210Z,94521.59
2019-05-09T01:39:35.725Z,94521.17
2019-05-09T01:42:03.280Z,94526.98
2019-05-09T01:44:29.995Z,94523.42
2019-05-09T01:46:56.166Z,94513.72
2019-05-09T01:49:23.226Z,94512.40
2019-05-09T01:51:49.680Z,94524.49
2019-05-09T01:54:17.305Z,94521.95
2019-05-09T01:56:43.547Z,94524.40
2019-05-09T01:59:09.863Z,94523.88
2019-05-09T02:01:36.107Z,94511.98
2019-05-09T02:04:04.047Z,94518.29
2019-05-09T02:06:30.554Z,94525.39
2019-05-09T02:08:56.786Z,94508.73
2019-05-09T02:11:23.868Z,94522.36
2019-05-09T02:13:50.588Z,94524.08
2019-05-09T02:16:33.871Z,94521.94
2019-05-09T02:19:04.059Z,94523.26
2019-05-09T02:21:30.383Z,94526.59
2019-05-09T02:23:56.672Z,94526.80
2019-05-09T02:26:24.012Z,94536.05
2019-05-09T02:28:50.326Z,94520.39
2019-05-09T02:31:16.752Z,94534.83
2019-05-09T02:33:45.574Z,94537.87
2019-05-09T02:36:11.032Z,94528.81
2019-05-09T02:38:39.210Z,94523.83
2019-05-09T02:41:08.366Z,94519.74
2019-05-09T02:43:34.517Z,94539.55
2019-05-09T02:46:02.741Z,94533.48
2019-05-09T02:48:29.165Z,94520.14
2019-05-09T02:50:55.433Z,94524.92
2019-05-09T02:53:21.661Z,94513.95
2019-05-09T02:55:49.424Z,94518.42
2019-05-09T02:58:20.394Z,94515.28
2019-05-09T03:00:59.706Z,94519.05
2019-05-09T03:03:39.061Z,94527.86
2019-05-09T03:06:04.116Z,94520.73
2019-05-09T03:08:30.404Z,94533.05
2019-05-09T03:10:59.079Z,94538.73
2019-05-09T03:13:24.820Z,94527.83
2019-05-09T03:15:52.884Z,94520.93
2019-05-09T03:18:19.112Z,94523.67
2019-05-09T03:20:58.585Z,94524.66
2019-05-09T03:23:24.698Z,94530.27
2019-05-09T03:25:51.018Z,94528.63
2019-05-09T03:28:19.154Z,94525.38
2019-05-09T03:30:50.477Z,94530.14
2019-05-09T03:33:19.956Z,94544.17
2019-05-09T03:35:48.172Z,94541.33
2019-05-09T03:38:14.545Z,94534.42
2019-05-09T03:40:40.867Z,94535.52
2019-05-09T03:43:08.104Z,94542.31
2019-05-09T03:45:37.669Z,94532.58
2019-05-09T03:48:07.388Z,94513.17
2019-05-09T03:50:34.018Z,94512.17
2019-05-09T03:53:01.125Z,94523.86
2019-05-09T03:55:29.260Z,94530.67
2019-05-09T03:57:58.127Z,94524.56
2019-05-09T04:00:24.793Z,94517.66
2019-05-09T04:02:51.179Z,94518.05
2019-05-09T04:05:18.096Z,94514.88
2019-05-09T04:07:44.395Z,94525.34
2019-05-09T04:10:10.923Z,94532.45
2019-05-09T04:12:37.625Z,94534.16
2019-05-09T04:15:05.686Z,94528.08
2019-05-09T04:17:42.220Z,94519.83
2019-05-09T04:20:11.638Z,94522.27
2019-05-09T04:22:38.549Z,94538.02
2019-05-09T04:25:07.811Z,94544.62
2019-05-09T04:27:34.399Z,94524.61
2019-05-09T04:30:00.569Z,94531.22
2019-05-09T04:32:27.358Z,94540.46
2019-05-09T04:34:53.797Z,94533.36
2019-05-09T04:37:19.903Z,94528.47
2019-05-09T04:39:47.686Z,94529.59
2019-05-09T04:42:13.894Z,94531.41
2019-05-09T04:44:41.961Z,94534.88
2019-05-09T04:47:08.849Z,94547.98
2019-05-09T04:49:39.780Z,94550.67
2019-05-09T04:52:03.179Z,94557.77
2019-05-09T04:54:29.534Z,94558.59
2019-05-09T04:56:57.378Z,94553.81
2019-05-09T04:59:23.831Z,94555.33
2019-05-09T05:01:52.193Z,94544.95
2019-05-09T05:04:19.761Z,94542.02
2019-05-09T05:06:47.773Z,94550.93
2019-05-09T05:09:14.109Z,94562.12
2019-05-09T05:11:40.283Z,94561.10
2019-05-09T05:14:09.088Z,94566.77
2019-05-09T05:16:34.603Z,94562.81
2019-05-09T05:19:00.800Z,94571.66
2019-05-09T05:21:28.450Z,94576.36
2019-05-09T05:23:57.703Z,94577.22
2019-05-09T05:26:24.069Z,94566.13
2019-05-09T05:28:50.358Z,94575.08
2019-05-09T05:31:18.076Z,94571.91
2019-05-09T05:34:02.869Z,94566.33
2019-05-09T05:36:28.971Z,94565.01
2019-05-09T05:38:55.209Z,94567.55
2019-05-09T05:41:21.369Z,94568.17
2019-05-09T05:43:47.980Z,94578.50
2019-05-09T05:46:18.191Z,94571.27
2019-05-09T05:48:45.306Z,94575.67
2019-05-09T05:51:11.522Z,94562.37
2019-05-09T05:53:38.107Z,94572.14
2019-05-09T05:56:04.564Z,94574.05
2019-05-09T05:58:30.795Z,94574.19
2019-05-09T06:00:58.859Z,94576.30
2019-05-09T06:03:25.075Z,94568.09
2019-05-09T06:05:51.882Z,94566.90
2019-05-09T06:08:18.258Z,94559.17
2019-05-09T06:10:44.458Z,94562.88
2019-05-09T06:13:10.688Z,94559.93
2019-05-09T06:15:37.862Z,94558.11
2019-05-09T06:18:04.521Z,94559.95
2019-05-09T06:20:30.615Z,94564.14
2019-05-09T06:22:58.208Z,94559.63
2019-05-09T06:25:24.675Z,94556.48
2019-05-09T06:27:50.878Z,94545.80
2019-05-09T06:30:32.810Z,94550.50
2019-05-09T06:32:59.534Z,94548.04
2019-05-09T06:35:28.224Z,94558.23
2019-05-09T06:37:54.259Z,94558.13
2019-05-09T06:40:23.123Z,94552.82
2019-05-09T06:42:50.141Z,94549.06
2019-05-09T06:45:31.073Z,94550.67
2019-05-09T06:47:58.340Z,94552.20
2019-05-09T06:50:27.299Z,94556.88
2019-05-09T06:52:53.598Z,94554.13
2019-05-09T06:55:19.873Z,94559.21
2019-05-09T06:57:48.687Z,94556.47
2019-05-09T07:00:19.879Z,94555.65
2019-05-09T07:02:48.083Z,94563.59
2019-05-09T07:05:25.246Z,94557.38
2019-05-09T07:07:53.373Z,94563.00
2019-05-09T07:10:19.624Z,94569.91
2019-05-09T07:12:45.877Z,94559.73
2019-05-09T07:15:12.211Z,94562.18
2019-05-09T07:17:38.803Z,94555.36
2019-05-09T07:20:08.179Z,94564.21
2019-05-09T07:22:35.414Z,94567.03
2019-05-09T07:25:12.857Z,94567.70
2019-05-09T07:27:40.293Z,94563.78
2019-05-09T07:30:29.064Z,94560.06
2019-05-09T07:33:02.625Z,94561.75
2019-05-09T07:35:28.836Z,94562.16
2019-05-09T07:37:55.003Z,94557.50
2019-05-09T07:40:21.214Z,94563.34
2019-05-09T07:42:48.107Z,94560.55
2019-05-09T07:45:14.488Z,94558.83
2019-05-09T07:47:40.624Z,94566.79
2019-05-09T07:50:08.597Z,94563.45
2019-05-09T07:52:34.973Z,94563.59
2019-05-09T07:55:01.211Z,94572.53
2019-05-09T07:57:28.715Z,94567.61
2019-05-09T07:59:55.177Z,94565.92
2019-05-09T08:02:21.349Z,94568.25
2019-05-09T08:04:48.861Z,94567.27
2019-05-09T08:07:17.565Z,94571.29
2019-05-09T08:09:43.738Z,94563.69
2019-05-09T08:12:10.008Z,94569.16
2019-05-09T08:14:37.708Z,94570.59
2019-05-09T08:17:04.305Z,94575.99
2019-05-09T08:19:30.506Z,94566.92
2019-05-09T08:21:57.502Z,94570.16
2019-05-09T08:24:27.559Z,94561.84
2019-05-09T08:26:53.211Z,94558.03
2019-05-09T08:29:20.096Z,94563.84
2019-05-09T08:31:48.505Z,94565.97
2019-05-09T08:34:15.241Z,94570.64
2019-05-09T08:36:41.401Z,94572.50
2019-05-09T08:39:08.352Z,94574.73
2019-05-09T08:41:34.571Z,94570.88
2019-05-09T08:44:00.924Z,94566.59
2019-05-09T08:46:28.608Z,94568.22
2019-05-09T08:48:57.582Z,94570.15
2019-05-09T08:51:35.292Z,94570.97
2019-05-09T08:53:53.953Z,94569.55
2019-05-09T08:56:20.072Z,94564.22
2019-05-09T08:58:48.495Z,94560.61
2019-05-09T09:01:14.800Z,94566.51
2019-05-09T09:03:41.048Z,94561.95
2019-05-09T09:06:08.262Z,94565.72
2019-05-09T09:08:34.736Z,94572.08
2019-05-09T09:11:00.896Z,94567.77
2019-05-09T09:13:28.371Z,94564.38
2019-05-09T09:16:12.100Z,94567.15
2019-05-09T09:18:23.120Z,94559.16
2019-05-09T09:20:49.307Z,94559.59
2019-05-09T09:23:17.874Z,94554.55
2019-05-09T09:25:43.732Z,94562.00
2019-05-09T09:28:10.140Z,94558.75
2019-05-09T09:30:38.623Z,94559.44
2019-05-09T09:33:04.597Z,94558.61
2019-05-09T09:35:30.763Z,94554.89
2019-05-09T09:37:57.984Z,94557.26
2019-05-09T09:40:24.838Z,94562.14
2019-05-09T09:42:51.128Z,94562.12
2019-05-09T09:45:18.373Z,94558.73
2019-05-09T09:47:44.926Z,94556.41
2019-05-09T09:50:11.390Z,94561.23
2019-05-09T09:52:38.455Z,94564.25
2019-05-09T09:55:08.780Z,94569.27
2019-05-09T09:57:34.160Z,94561.63
2019-05-09T10:00:18.098Z,94566.47
2019-05-09T10:02:44.415Z,94565.00
2019-05-09T10:05:11.108Z,94566.14
2019-05-09T10:07:38.410Z,94563.75
2019-05-09T10:10:07.692Z,94562.32
2019-05-09T10:12:33.842Z,94572.67
2019-05-09T10:15:04.962Z,94563.84
2019-05-09T10:17:38.116Z,94555.33
2019-05-09T10:20:18.251Z,94559.02
2019-05-09T10:22:55.365Z,94553.95
2019-05-09T10:25:12.883Z,94552.87
2019-05-09T10:27:39.009Z,94559.40
2019-05-09T10:30:09.121Z,94550.72
2019-05-09T10:32:38.179Z,94550.44
2019-05-09T10:35:04.771Z,94554.33
2019-05-09T10:37:31.011Z,94550.48
2019-05-09T10:39:58.056Z,94553.53
2019-05-09T10:42:29.520Z,94553.48
2019-05-09T10:45:14.372Z,94546.51
2019-05-09T10:47:41.962Z,94546.51
2019-05-09T10:50:08.692Z,94550.27
2019-05-09T10:52:35.157Z,94546.52
2019-05-09T10:55:01.438Z,94542.09
2019-05-09T10:57:31.519Z,94536.05
2019-05-09T10:59:57.942Z,94531.99
2019-05-09T11:02:24.086Z,94536.98
2019-05-09T11:04:50.191Z,94541.30
2019-05-09T11:07:18.182Z,94539.19
2019-05-09T11:09:44.459Z,94534.94
2019-05-09T11:12:10.829Z,94545.02
2019-05-09T11:14:37.749Z,94548.56
2019-05-09T11:17:10.647Z,94539.84
2019-05-09T11:19:32.246Z,94534.66
2019-05-09T11:21:58.763Z,94535.00
2019-05-09T11:24:40.604Z,94527.41
2019-05-09T11:26:53.624Z,94535.50
2019-05-09T11:29:19.991Z,94521.56
2019-05-09T11:31:47.782Z,94519.58
2019-05-09T11:34:14.563Z,94523.59
2019-05-09T11:36:41.973Z,94523.90
2019-05-09T11:39:10.599Z,94522.45
2019-05-09T11:41:38.374Z,94522.95
2019-05-09T11:44:04.912Z,94516.60
2019-05-09T11:46:32.255Z,94529.89
2019-05-09T11:48:59.112Z,94532.50
2019-05-09T11:51:25.352Z,94524.48
2019-05-09T11:53:51.688Z,94521.09
2019-05-09T11:56:18.302Z,94528.79
2019-05-09T11:58:44.563Z,94525.31
2019-05-09T12:01:10.783Z,94524.42
2019-05-09T12:03:38.851Z,94520.09
2019-05-09T12:06:05.112Z,94516.81
2019-05-09T12:08:31.529Z,94529.07
2019-05-09T12:10:58.012Z,94511.88
2019-05-09T12:13:24.172Z,94529.78
2019-05-09T12:15:50.411Z,94525.70
2019-05-09T12:18:16.590Z,94521.15
2019-05-09T12:20:42.926Z,94516.63
2019-05-09T12:23:09.051Z,94521.29
2019-05-09T12:25:35.304Z,94528.68
2019-05-09T12:28:01.507Z,94527.00
2019-05-09T12:30:28.598Z,94525.41
2019-05-09T12:32:55.016Z,94516.69
2019-05-09T12:35:21.503Z,94520.94
2019-05-09T12:37:48.404Z,94517.14
2019-05-09T12:40:15.010Z,94524.88
2019-05-09T12:42:42.283Z,94527.56
2019-05-09T12:45:09.279Z,94518.61
2019-05-09T12:47:35.646Z,94519.05
2019-05-09T12:50:02.932Z,94529.71
2019-05-09T12:52:29.649Z,94520.12
2019-05-09T12:54:58.142Z,94513.64
2019-05-09T12:57:24.086Z,94521.13
2019-05-09T12:59:52.870Z,94524.00
2019-05-09T13:02:18.733Z,94517.17
2019-05-09T13:04:44.845Z,94523.38
2019-05-09T13:07:11.277Z,94518.64
2019-05-09T13:09:37.453Z,94516.81
2019-05-09T13:12:03.741Z,94518.38
2019-05-09T13:14:31.090Z,94519.77
2019-05-09T13:17:05.253Z,94522.20
2019-05-09T13:19:42.571Z,94516.91
2019-05-09T13:22:08.724Z,94509.91
2019-05-09T13:24:37.870Z,94520.33
2019-05-09T13:27:04.389Z,94510.71
2019-05-09T13:29:30.682Z,94503.20
2019-05-09T13:31:57.760Z,94505.32
2019-05-09T13:34:24.292Z,94512.84
2019-05-09T13:36:50.522Z,94509.89
2019-05-09T13:39:17.991Z,94516.56
2019-05-09T13:41:44.485Z,94509.72
2019-05-09T13:44:13.963Z,94512.11
2019-05-09T13:46:39.177Z,94500.01
2019-05-09T13:49:11.545Z,94493.73
2019-05-09T13:51:33.796Z,94496.78
2019-05-09T13:54:00.053Z,94504.24
2019-05-09T13:56:27.952Z,94497.91
2019-05-09T13:58:54.378Z,94490.90
2019-05-09T14:01:20.527Z,94498.52
2019-05-09T14:03:49.134Z,94488.24
2019-05-09T14:06:15.066Z,94495.80
2019-05-09T14:08:41.325Z,94498.89
2019-05-09T14:11:08.309Z,94501.67
2019-05-09T14:13:34.858Z,94502.66
2019-05-09T14:16:15.828Z,94495.19
2019-05-09T14:18:29.486Z,94505.69
2019-05-09T14:20:57.565Z,94507.09
2019-05-09T14:23:23.884Z,94511.36
2019-05-09T14:25:51.977Z,94509.39
2019-05-09T14:28:19.194Z,94513.34
2019-05-09T14:30:47.672Z,94513.13
2019-05-09T14:33:13.437Z,94511.39
2019-05-09T14:35:39.624Z,94513.10
2019-05-09T14:38:05.899Z,94511.98
2019-05-09T14:40:32.119Z,94500.11
2019-05-09T14:42:58.214Z,94508.00
2019-05-09T14:45:24.470Z,94506.58
2019-05-09T14:47:50.636Z,94502.05
2019-05-09T14:50:18.060Z,94498.81
2019-05-09T14:52:44.562Z,94492.22
2019-05-09T14:55:10.967Z,94491.72
2019-05-09T14:57:38.385Z,94486.48
2019-05-09T15:00:07.738Z,94488.16
2019-05-09T15:02:33.846Z,94493.66
2019-05-09T15:05:01.013Z,94491.41
2019-05-09T15:07:28.394Z,94492.51
2019-05-09T15:09:56.859Z,94490.12
2019-05-09T15:12:22.990Z,94500.42
2019-05-09T15:14:49.201Z,94504.25
2019-05-09T15:17:15.402Z,94494.30
2019-05-09T15:19:56.570Z,94500.92
2019-05-09T15:22:09.696Z,94502.38
2019-05-09T15:24:35.819Z,94508.20
2019-05-09T15:27:02.108Z,94509.10
2019-05-09T15:29:29.086Z,94509.83
2019-05-09T15:32:03.279Z,94497.76
2019-05-09T15:34:23.699Z,94501.31
2019-05-09T15:36:49.976Z,94504.35
2019-05-09T15:39:18.362Z,94499.11
2019-05-09T15:41:44.566Z,94498.73
2019-05-09T15:44:10.858Z,94498.20
2019-05-09T15:46:48.566Z,94496.34
2019-05-09T15:49:14.775Z,94501.13
2019-05-09T15:51:41.071Z,94498.06
2019-05-09T15:54:08.316Z,94503.18
2019-05-09T15:56:35.614Z,94501.13
2019-05-09T15:59:02.107Z,94499.17
2019-05-09T16:01:28.404Z,94506.31
2019-05-09T16:03:54.786Z,94503.42
2019-05-09T16:06:21.137Z,94506.22
2019-05-09T16:08:47.420Z,94495.22
2019-05-09T16:11:13.699Z,94501.62
2019-05-09T16:13:39.922Z,94501.47
2019-05-09T16:16:08.810Z,94508.80
2019-05-09T16:18:34.220Z,94508.80
2019-05-09T16:21:00.378Z,94511.21
2019-05-09T16:23:28.979Z,94510.06
2019-05-09T16:25:54.737Z,94518.38
2019-05-09T16:28:21.122Z,94512.31
2019-05-09T16:30:48.297Z,94513.93
2019-05-09T16:33:14.875Z,94513.50
2019-05-09T16:35:41.739Z,94520.53
2019-05-09T16:38:10.793Z,94522.50
2019-05-09T16:40:38.642Z,94524.80
2019-05-09T16:43:04.907Z,94530.34
2019-05-09T16:45:31.279Z,94525.52
2019-05-09T16:47:57.722Z,94526.71
2019-05-09T16:50:23.836Z,94525.68
2019-05-09T16:52:50.153Z,94532.81
2019-05-09T16:55:21.429Z,94533.09
2019-05-09T16:57:47.595Z,94538.44
2019-05-09T17:00:20.642Z,94532.99
2019-05-09T17:02:48.092Z,94534.40
2019-05-09T17:05:14.552Z,94535.03
2019-05-09T17:07:40.768Z,94526.01
2019-05-09T17:10:08.633Z,94530.70
2019-05-09T17:12:35.036Z,94539.08
2019-05-09T17:15:02.689Z,94532.48
2019-05-09T17:17:29.932Z,94538.11
2019-05-09T17:19:57.289Z,94543.31
2019-05-09T17:22:42.426Z,94539.55
2019-05-09T17:25:08.719Z,94540.94
2019-05-09T17:27:35.090Z,94539.84
2019-05-09T17:30:02.882Z,94539.42
2019-05-09T17:32:29.271Z,94543.05
2019-05-09T17:34:58.152Z,94538.50
2019-05-09T17:37:23.803Z,94547.36
2019-05-09T17:39:50.018Z,94541.28
2019-05-09T17:42:18.113Z,94538.42
2019-05-09T17:44:44.249Z,94538.65
2019-05-09T17:47:10.526Z,94551.08
2019-05-09T17:49:37.483Z,94546.43
2019-05-09T17:52:04.014Z,94551.83
2019-05-09T17:54:30.249Z,94546.96
2019-05-09T17:56:57.347Z,94549.79
2019-05-09T17:59:23.873Z,94555.72
2019-05-09T18:01:50.095Z,94552.18
2019-05-09T18:04:17.931Z,94561.33
2019-05-09T18:06:44.472Z,94553.34
2019-05-09T18:09:10.886Z,94553.28
2019-05-09T18:11:37.848Z,94556.23
2019-05-09T18:14:04.116Z,94561.11
2019-05-09T18:16:30.659Z,94556.09
2019-05-09T18:18:59.108Z,94560.46
2019-05-09T18:21:25.268Z,94563.94
2019-05-09T18:23:51.475Z,94571.77
2019-05-09T18:26:18.510Z,94569.48
2019-05-09T18:28:45.197Z,94576.95
2019-05-09T18:31:11.415Z,94579.87
2019-05-09T18:33:47.589Z,94576.56
2019-05-09T18:36:13.599Z,94584.39
2019-05-09T18:38:39.920Z,94588.64
2019-05-09T18:41:09.549Z,94593.36
2019-05-09T18:43:34.156Z,94600.61
2019-05-09T18:46:00.417Z,94600.47
2019-05-09T18:48:27.826Z,94598.09
2019-05-09T18:50:54.386Z,94595.77
2019-05-09T18:53:20.711Z,94606.44
2019-05-09T18:55:46.936Z,94608.33
2019-05-09T18:58:13.056Z,94603.27
2019-05-09T19:00:39.298Z,94605.44
2019-05-09T19:03:05.580Z,94604.74
2019-05-09T19:05:31.829Z,94602.99
2019-05-09T19:07:58.063Z,94607.38
2019-05-09T19:10:24.478Z,94608.28
2019-05-09T19:12:50.794Z,94606.13
2019-05-09T19:15:28.361Z,94610.34
2019-05-09T19:18:02.648Z,94612.51
2019-05-09T19:20:47.809Z,94617.04
2019-05-09T19:23:14.100Z,94616.69
2019-05-09T19:25:40.433Z,94616.91
2019-05-09T19:28:06.865Z,94618.16
2019-05-09T19:30:34.376Z,94618.64
2019-05-09T19:33:00.829Z,94625.69
2019-05-09T19:35:27.015Z,94620.06
2019-05-09T19:37:53.297Z,94629.76
2019-05-09T19:40:20.414Z,94620.99
2019-05-09T19:42:47.036Z,94632.02
2019-05-09T19:45:13.765Z,94630.89
2019-05-09T19:47:40.056Z,94633.88
2019-05-09T19:50:06.699Z,94629.41
2019-05-09T19:52:38.534Z,94625.84
2019-05-09T19:55:02.498Z,94628.08
2019-05-09T19:57:28.953Z,94628.37
2019-05-09T19:59:55.381Z,94628.79
2019-05-09T20:02:21.512Z,94626.67
2019-05-09T20:04:47.835Z,94627.91
2019-05-09T20:07:14.113Z,94630.47
2019-05-09T20:09:42.237Z,94633.94
2019-05-09T20:12:13.253Z,94637.30
2019-05-09T20:14:41.288Z,94637.62
2019-05-09T20:17:07.533Z,94635.59
2019-05-09T20:19:33.926Z,94640.14
2019-05-09T20:22:00.110Z,94642.80
2019-05-09T20:24:26.455Z,94643.61
2019-05-09T20:26:52.713Z,94642.09
2019-05-09T20:29:19.054Z,94643.73
2019-05-09T20:31:45.400Z,94656.27
2019-05-09T20:34:11.776Z,94649.04
2019-05-09T20:36:37.895Z,94645.05
2019-05-09T20:39:06.569Z,94643.92
2019-05-09T20:41:33.669Z,94647.58
2019-05-09T20:44:00.123Z,94657.55
2019-05-09T20:46:26.452Z,94649.80
2019-05-09T20:48:52.549Z,94643.69
2019-05-09T20:51:18.790Z,94647.77
2019-05-09T20:53:44.984Z,94650.80
2019-05-09T20:56:11.212Z,94651.91
2019-05-09T20:58:37.352Z,94648.63
2019-05-09T21:01:03.705Z,94651.58
2019-05-09T21:03:29.875Z,94649.13
2019-05-09T21:05:56.088Z,94650.16
2019-05-09T21:08:22.466Z,94652.50
2019-05-09T21:10:48.587Z,94652.38
2019-05-09T21:13:14.804Z,94655.22
2019-05-09T21:15:40.946Z,94659.70
2019-05-09T21:18:07.217Z,94663.67
2019-05-09T21:20:34.427Z,94665.00
2019-05-09T21:23:00.810Z,94667.74
2019-05-09T21:25:27.282Z,94675.28
2019-05-09T21:27:53.634Z,94671.02
2019-05-09T21:30:20.084Z,94671.44
2019-05-09T21:32:46.237Z,94676.53
2019-05-09T21:35:13.245Z,94675.70
2019-05-09T21:37:39.426Z,94677.66
2019-05-09T21:40:06.318Z,94669.20
2019-05-09T21:42:32.509Z,94685.27
2019-05-09T21:44:58.631Z,94678.45
2019-05-09T21:47:24.795Z,94674.71
2019-05-09T21:49:50.965Z,94679.70
2019-05-09T21:52:17.121Z,94677.85
2019-05-09T21:54:43.284Z,94681.42
2019-05-09T21:57:09.622Z,94681.92
2019-05-09T21:59:36.112Z,94687.21
2019-05-09T22:02:02.944Z,94686.09
2019-05-09T22:04:29.373Z,94696.77
2019-05-09T22:06:55.529Z,94696.53
2019-05-09T22:09:21.711Z,94691.97
2019-05-09T22:11:48.067Z,94698.59
2019-05-09T22:14:14.500Z,94690.05
2019-05-09T22:16:40.814Z,94696.97
2019-05-09T22:19:07.078Z,94698.72
2019-05-09T22:21:33.267Z,94700.23
2019-05-09T22:23:59.423Z,94700.86
2019-05-09T22:26:25.571Z,94696.70
2019-05-09T22:28:51.783Z,94700.86
2019-05-09T22:31:18.062Z,94704.33
2019-05-09T22:33:44.334Z,94703.73
2019-05-09T22:36:11.540Z,94712.17
2019-05-09T22:38:37.790Z,94722.72
2019-05-09T22:41:03.918Z,94729.42
2019-05-09T22:43:30.134Z,94726.16
2019-05-09T22:45:56.257Z,94722.39
2019-05-09T22:48:22.505Z,94726.64
2019-05-09T22:50:48.702Z,94730.22
2019-05-09T22:53:14.987Z,94737.13
2019-05-09T22:55:41.218Z,94739.48
2019-05-09T22:58:07.427Z,94742.03
2019-05-09T23:00:33.916Z,94740.51
2019-05-09T23:03:00.122Z,94747.42
2019-05-09T23:05:26.329Z,94745.11
2019-05-09T23:07:52.572Z,94753.34
2019-05-09T23:10:18.748Z,94755.55
2019-05-09T23:12:45.118Z,94760.06
2019-05-09T23:15:13.624Z,94761.58
2019-05-09T23:17:39.896Z,94767.40
2019-05-09T23:20:08.580Z,94773.27
2019-05-09T23:22:35.097Z,94775.09
2019-05-09T23:25:01.381Z,94783.41
2019-05-09T23:27:27.659Z,94786.92
2019-05-09T23:29:53.884Z,94785.50
2019-05-09T23:32:30.791Z,94789.22
2019-05-09T23:34:56.966Z,94792.77
2019-05-09T23:37:23.233Z,94790.62
2019-05-09T23:39:51.381Z,94794.47
2019-05-09T23:42:17.558Z,94795.35
2019-05-09T23:44:43.892Z,94796.38
2019-05-09T23:47:10.151Z,94799.70
2019-05-09T23:49:36.316Z,94800.91
2019-05-09T23:52:02.663Z,94811.09
2019-05-09T23:54:48.097Z,94813.10
2019-05-09T23:57:32.806Z,94816.95
